Portada
METAR-TAF:

METAR-TAF

Aeroports :

Siktivkar, Rússia

latitud: 61-43N, longitud: 050-50E, altitud: 119 m

Observació

L'informe es va fer fa 15 minuts, a les 17:00 UTC
Vent 6 kt del Sud/Sud-Oest
Temperatura 11°C
Humitat 50%
Pressió 1023 hPa
Visibilitat 10 km o més
sense núvols per sota de 1500 mi sense presència de cumulonimbus.

METAR: UUYY 131700Z 20003MPS CAVOK 11/01 Q1023 R18/61D NOSIG RMK QFE758/1011

Hora: 20:15 (17:15 UTC)

Pronòstic

L'informe es va fer fa 3 hores i 15 minuts, a les 14:00 UTC
Pronòstic vàlid del 13 a les 15 UTC al 14 a les 15 UTC
Vent 12 kt del Sud/Sud-Oest amb ràfegues de 21 kt
Visibilitat 10 km o més
Núvols disperses a una alçada de 2500 ft
Evolucionant progressivament
l' 13 a les 18 UTC al 13 a les 19 UTC
Vent 6 kt del Sud/Sud-Oest amb ràfegues de 16 kt
Temporalment
l' 14 a les 06 UTC al 14 a les 15 UTC
Vent 12 kt del Sud/Sud-Oest amb ràfegues de 25 kt

TAF: UUYY 131400Z 1315/1415 21006G11MPS 9999 SCT025 BECMG 1318/1319 20003G08MPS TEMPO 1406/1415 21006G13MPS

Observacions i pronòstics meteorològics de més de 4000 aeroports (METAR i TAF).

Les estacions disponibles són els punts grocs i vermells al mapa.

Posi el ratolí al punt desitjat per veure el nom de l'estació.

Feu clic per veure les observacions i els pronòstics meteorològics.

Per canviar el mapa: feu clic els botons verds amb una creu de color negre per apropar; al botó verd amb un guió per allunyar la imatge; o en les fletxes verdes per a mapes adjacents.


METAR-TAF: